sensor_id;sensor_type;location;lat;lon;timestamp;P1;durP1;ratioP1;P2;durP2;ratioP2
80586;SDS011;69943;20.850;106.728;2024-03-02T00:00:33;11.20;;;8.70;;
80586;SDS011;69943;20.850;106.728;2024-03-02T00:03:44;11.40;;;8.30;;
80586;SDS011;69943;20.850;106.728;2024-03-02T00:06:19;11.10;;;7.70;;
80586;SDS011;69943;20.850;106.728;2024-03-02T00:08:57;12.60;;;9.20;;
80586;SDS011;69943;20.850;106.728;2024-03-02T00:11:36;11.00;;;9.30;;
80586;SDS011;69943;20.850;106.728;2024-03-02T00:14:08;14.00;;;9.50;;
80586;SDS011;69943;20.850;106.728;2024-03-02T00:16:41;13.90;;;10.00;;
80586;SDS011;69943;20.850;106.728;2024-03-02T00:19:13;13.50;;;8.80;;
80586;SDS011;69943;20.850;106.728;2024-03-02T00:21:45;11.60;;;9.00;;
80586;SDS011;69943;20.850;106.728;2024-03-02T00:24:20;11.10;;;8.80;;
80586;SDS011;69943;20.850;106.728;2024-03-02T00:26:53;12.40;;;8.90;;
80586;SDS011;69943;20.850;106.728;2024-03-02T00:29:25;12.30;;;9.40;;
80586;SDS011;69943;20.850;106.728;2024-03-02T00:31:57;11.90;;;9.30;;
80586;SDS011;69943;20.850;106.728;2024-03-02T00:34:30;12.90;;;9.10;;
80586;SDS011;69943;20.850;106.728;2024-03-02T00:37:02;12.10;;;9.30;;
80586;SDS011;69943;20.850;106.728;2024-03-02T00:39:34;11.90;;;9.90;;
80586;SDS011;69943;20.850;106.728;2024-03-02T00:42:07;12.70;;;8.90;;
80586;SDS011;69943;20.850;106.728;2024-03-02T00:44:39;12.30;;;8.90;;
80586;SDS011;69943;20.850;106.728;2024-03-02T00:47:11;12.00;;;9.50;;
80586;SDS011;69943;20.850;106.728;2024-03-02T00:49:44;9.70;;;8.20;;
80586;SDS011;69943;20.850;106.728;2024-03-02T00:52:18;11.10;;;9.30;;
80586;SDS011;69943;20.850;106.728;2024-03-02T00:54:51;11.50;;;9.40;;
80586;SDS011;69943;20.850;106.728;2024-03-02T00:57:24;11.00;;;8.30;;
80586;SDS011;69943;20.850;106.728;2024-03-02T00:59:57;13.70;;;9.50;;
80586;SDS011;69943;20.850;106.728;2024-03-02T01:02:29;13.00;;;9.40;;
80586;SDS011;69943;20.850;106.728;2024-03-02T01:05:02;10.80;;;9.20;;
80586;SDS011;69943;20.850;106.728;2024-03-02T01:07:37;12.50;;;9.60;;
80586;SDS011;69943;20.850;106.728;2024-03-02T01:10:10;12.90;;;9.40;;
80586;SDS011;69943;20.850;106.728;2024-03-02T01:12:45;13.60;;;9.30;;
80586;SDS011;69943;20.850;106.728;2024-03-02T01:15:21;12.20;;;9.50;;
80586;SDS011;69943;20.850;106.728;2024-03-02T01:17:53;11.90;;;9.80;;
80586;SDS011;69943;20.850;106.728;2024-03-02T01:20:26;11.50;;;9.30;;
80586;SDS011;69943;20.850;106.728;2024-03-02T01:22:58;10.90;;;9.30;;
80586;SDS011;69943;20.850;106.728;2024-03-02T01:25:30;11.90;;;9.10;;
80586;SDS011;69943;20.850;106.728;2024-03-02T01:28:03;12.00;;;10.10;;
80586;SDS011;69943;20.850;106.728;2024-03-02T01:30:36;12.50;;;9.50;;
80586;SDS011;69943;20.850;106.728;2024-03-02T01:33:08;16.10;;;10.70;;
80586;SDS011;69943;20.850;106.728;2024-03-02T01:35:41;12.30;;;9.30;;
80586;SDS011;69943;20.850;106.728;2024-03-02T01:38:13;11.20;;;9.90;;
80586;SDS011;69943;20.850;106.728;2024-03-02T01:40:46;14.50;;;9.00;;
80586;SDS011;69943;20.850;106.728;2024-03-02T01:43:19;13.60;;;9.40;;
80586;SDS011;69943;20.850;106.728;2024-03-02T01:45:51;11.00;;;9.00;;
80586;SDS011;69943;20.850;106.728;2024-03-02T01:48:24;11.00;;;9.10;;
80586;SDS011;69943;20.850;106.728;2024-03-02T01:50:56;12.70;;;10.20;;
80586;SDS011;69943;20.850;106.728;2024-03-02T01:53:29;14.00;;;9.40;;
80586;SDS011;69943;20.850;106.728;2024-03-02T01:56:01;12.00;;;9.80;;
80586;SDS011;69943;20.850;106.728;2024-03-02T01:58:33;17.00;;;8.80;;
80586;SDS011;69943;20.850;106.728;2024-03-02T02:01:06;14.10;;;9.60;;
80586;SDS011;69943;20.850;106.728;2024-03-02T02:03:38;13.90;;;10.20;;
80586;SDS011;69943;20.850;106.728;2024-03-02T02:06:11;11.60;;;9.40;;
80586;SDS011;69943;20.850;106.728;2024-03-02T02:08:43;15.20;;;11.00;;
80586;SDS011;69943;20.850;106.728;2024-03-02T02:11:16;14.50;;;10.00;;
80586;SDS011;69943;20.850;106.728;2024-03-02T02:13:48;12.40;;;9.70;;
80586;SDS011;69943;20.850;106.728;2024-03-02T02:16:21;13.10;;;10.10;;
80586;SDS011;69943;20.850;106.728;2024-03-02T02:18:53;12.00;;;9.20;;
80586;SDS011;69943;20.850;106.728;2024-03-02T02:21:25;14.80;;;9.40;;
80586;SDS011;69943;20.850;106.728;2024-03-02T02:23:58;13.20;;;9.10;;
80586;SDS011;69943;20.850;106.728;2024-03-02T02:26:30;20.90;;;10.30;;
80586;SDS011;69943;20.850;106.728;2024-03-02T02:29:02;15.40;;;9.60;;
80586;SDS011;69943;20.850;106.728;2024-03-02T02:31:41;17.60;;;9.20;;
80586;SDS011;69943;20.850;106.728;2024-03-02T02:34:14;13.70;;;9.20;;
80586;SDS011;69943;20.850;106.728;2024-03-02T02:36:46;12.90;;;10.10;;
80586;SDS011;69943;20.850;106.728;2024-03-02T02:39:20;15.40;;;9.40;;
80586;SDS011;69943;20.850;106.728;2024-03-02T02:41:56;13.30;;;9.10;;
80586;SDS011;69943;20.850;106.728;2024-03-02T02:44:28;16.30;;;8.90;;
80586;SDS011;69943;20.850;106.728;2024-03-02T02:47:01;14.20;;;9.10;;
80586;SDS011;69943;20.850;106.728;2024-03-02T02:49:33;10.80;;;8.90;;
80586;SDS011;69943;20.850;106.728;2024-03-02T02:52:05;11.20;;;8.70;;
80586;SDS011;69943;20.850;106.728;2024-03-02T02:54:38;15.40;;;9.60;;
80586;SDS011;69943;20.850;106.728;2024-03-02T02:57:10;12.60;;;8.80;;
80586;SDS011;69943;20.850;106.728;2024-03-02T02:59:42;12.40;;;9.10;;
80586;SDS011;69943;20.850;106.728;2024-03-02T03:02:15;10.50;;;8.20;;
80586;SDS011;69943;20.850;106.728;2024-03-02T03:04:47;10.40;;;8.50;;
80586;SDS011;69943;20.850;106.728;2024-03-02T03:07:19;12.10;;;9.20;;
80586;SDS011;69943;20.850;106.728;2024-03-02T03:09:51;9.90;;;8.10;;
80586;SDS011;69943;20.850;106.728;2024-03-02T03:12:24;11.30;;;8.40;;
80586;SDS011;69943;20.850;106.728;2024-03-02T03:14:56;14.40;;;8.80;;
80586;SDS011;69943;20.850;106.728;2024-03-02T03:17:28;10.30;;;9.00;;
80586;SDS011;69943;20.850;106.728;2024-03-02T03:20:04;12.20;;;8.70;;
80586;SDS011;69943;20.850;106.728;2024-03-02T03:22:40;12.00;;;8.80;;
80586;SDS011;69943;20.850;106.728;2024-03-02T03:25:12;10.90;;;8.30;;
80586;SDS011;69943;20.850;106.728;2024-03-02T03:27:44;13.60;;;9.30;;
80586;SDS011;69943;20.850;106.728;2024-03-02T03:30:17;11.20;;;8.70;;
80586;SDS011;69943;20.850;106.728;2024-03-02T03:32:49;11.80;;;8.80;;
80586;SDS011;69943;20.850;106.728;2024-03-02T03:35:21;9.30;;;7.90;;
80586;SDS011;69943;20.850;106.728;2024-03-02T03:37:54;10.80;;;8.50;;
80586;SDS011;69943;20.850;106.728;2024-03-02T03:40:27;10.10;;;8.70;;
80586;SDS011;69943;20.850;106.728;2024-03-02T03:42:59;11.80;;;8.90;;
80586;SDS011;69943;20.850;106.728;2024-03-02T03:45:31;11.90;;;9.20;;
80586;SDS011;69943;20.850;106.728;2024-03-02T03:48:04;12.00;;;9.20;;
80586;SDS011;69943;20.850;106.728;2024-03-02T03:50:36;10.60;;;8.50;;
80586;SDS011;69943;20.850;106.728;2024-03-02T03:53:09;11.80;;;8.50;;
80586;SDS011;69943;20.850;106.728;2024-03-02T03:55:41;10.50;;;8.10;;
80586;SDS011;69943;20.850;106.728;2024-03-02T03:58:13;12.00;;;8.80;;
80586;SDS011;69943;20.850;106.728;2024-03-02T04:00:47;12.30;;;8.80;;
80586;SDS011;69943;20.850;106.728;2024-03-02T04:03:19;11.10;;;9.40;;
80586;SDS011;69943;20.850;106.728;2024-03-02T04:05:52;16.00;;;9.40;;
80586;SDS011;69943;20.850;106.728;2024-03-02T04:08:24;9.90;;;8.50;;
80586;SDS011;69943;20.850;106.728;2024-03-02T04:10:56;10.40;;;8.50;;
80586;SDS011;69943;20.850;106.728;2024-03-02T04:13:29;11.30;;;8.80;;
80586;SDS011;69943;20.850;106.728;2024-03-02T04:16:01;13.20;;;9.40;;
80586;SDS011;69943;20.850;106.728;2024-03-02T04:18:34;11.30;;;9.30;;
80586;SDS011;69943;20.850;106.728;2024-03-02T04:21:07;11.20;;;9.50;;
80586;SDS011;69943;20.850;106.728;2024-03-02T04:23:39;10.90;;;9.50;;
80586;SDS011;69943;20.850;106.728;2024-03-02T04:26:12;10.80;;;8.80;;
80586;SDS011;69943;20.850;106.728;2024-03-02T04:28:45;11.20;;;8.90;;
80586;SDS011;69943;20.850;106.728;2024-03-02T04:31:18;16.20;;;9.40;;
80586;SDS011;69943;20.850;106.728;2024-03-02T04:33:50;11.60;;;9.30;;
80586;SDS011;69943;20.850;106.728;2024-03-02T04:36:22;13.30;;;9.10;;
80586;SDS011;69943;20.850;106.728;2024-03-02T04:38:55;11.80;;;9.40;;
80586;SDS011;69943;20.850;106.728;2024-03-02T04:41:27;17.30;;;11.20;;
80586;SDS011;69943;20.850;106.728;2024-03-02T04:44:00;16.90;;;12.50;;
80586;SDS011;69943;20.850;106.728;2024-03-02T04:46:32;18.60;;;11.90;;
80586;SDS011;69943;20.850;106.728;2024-03-02T04:49:04;15.30;;;11.60;;
80586;SDS011;69943;20.850;106.728;2024-03-02T04:51:37;23.60;;;12.00;;
80586;SDS011;69943;20.850;106.728;2024-03-02T04:54:09;14.50;;;10.80;;
80586;SDS011;69943;20.850;106.728;2024-03-02T04:56:41;12.60;;;9.80;;
80586;SDS011;69943;20.850;106.728;2024-03-02T04:59:20;14.30;;;10.00;;
80586;SDS011;69943;20.850;106.728;2024-03-02T05:01:53;16.60;;;10.90;;
80586;SDS011;69943;20.850;106.728;2024-03-02T05:04:25;12.90;;;10.20;;
80586;SDS011;69943;20.850;106.728;2024-03-02T05:06:57;14.00;;;10.60;;
80586;SDS011;69943;20.850;106.728;2024-03-02T05:09:29;13.80;;;10.40;;
80586;SDS011;69943;20.850;106.728;2024-03-02T05:12:02;13.20;;;11.00;;
80586;SDS011;69943;20.850;106.728;2024-03-02T05:14:43;14.00;;;11.00;;
80586;SDS011;69943;20.850;106.728;2024-03-02T05:17:17;14.60;;;11.40;;
80586;SDS011;69943;20.850;106.728;2024-03-02T05:19:49;13.50;;;11.00;;
80586;SDS011;69943;20.850;106.728;2024-03-02T05:22:21;16.70;;;12.30;;
80586;SDS011;69943;20.850;106.728;2024-03-02T05:24:54;14.10;;;11.00;;
80586;SDS011;69943;20.850;106.728;2024-03-02T05:27:26;17.60;;;11.70;;
80586;SDS011;69943;20.850;106.728;2024-03-02T05:29:59;14.70;;;10.70;;
80586;SDS011;69943;20.850;106.728;2024-03-02T05:32:32;12.70;;;10.50;;
80586;SDS011;69943;20.850;106.728;2024-03-02T05:35:05;13.60;;;10.70;;
80586;SDS011;69943;20.850;106.728;2024-03-02T05:37:37;11.50;;;9.70;;
80586;SDS011;69943;20.850;106.728;2024-03-02T05:40:10;12.20;;;10.50;;
80586;SDS011;69943;20.850;106.728;2024-03-02T05:42:43;13.50;;;11.00;;
80586;SDS011;69943;20.850;106.728;2024-03-02T05:45:16;15.80;;;11.40;;
80586;SDS011;69943;20.850;106.728;2024-03-02T05:47:48;13.70;;;11.30;;
80586;SDS011;69943;20.850;106.728;2024-03-02T05:50:21;14.20;;;10.80;;
80586;SDS011;69943;20.850;106.728;2024-03-02T05:52:53;15.30;;;11.20;;
80586;SDS011;69943;20.850;106.728;2024-03-02T05:55:27;14.90;;;11.70;;
80586;SDS011;69943;20.850;106.728;2024-03-02T05:57:59;15.50;;;10.60;;
80586;SDS011;69943;20.850;106.728;2024-03-02T06:00:37;12.90;;;11.10;;
80586;SDS011;69943;20.850;106.728;2024-03-02T06:03:10;15.90;;;11.10;;
80586;SDS011;69943;20.850;106.728;2024-03-02T06:05:42;18.60;;;12.60;;
80586;SDS011;69943;20.850;106.728;2024-03-02T06:08:15;14.90;;;11.00;;
80586;SDS011;69943;20.850;106.728;2024-03-02T06:10:50;13.20;;;10.70;;
80586;SDS011;69943;20.850;106.728;2024-03-02T06:13:22;16.40;;;12.10;;
80586;SDS011;69943;20.850;106.728;2024-03-02T06:15:57;16.50;;;11.50;;
80586;SDS011;69943;20.850;106.728;2024-03-02T06:18:29;14.40;;;11.20;;
80586;SDS011;69943;20.850;106.728;2024-03-02T06:21:02;14.20;;;11.10;;
80586;SDS011;69943;20.850;106.728;2024-03-02T06:23:34;16.60;;;11.00;;
80586;SDS011;69943;20.850;106.728;2024-03-02T06:26:10;13.50;;;11.40;;
80586;SDS011;69943;20.850;106.728;2024-03-02T06:28:43;12.40;;;10.30;;
80586;SDS011;69943;20.850;106.728;2024-03-02T06:31:15;14.90;;;10.50;;
80586;SDS011;69943;20.850;106.728;2024-03-02T06:33:48;17.00;;;12.40;;
80586;SDS011;69943;20.850;106.728;2024-03-02T06:36:20;14.70;;;10.60;;
80586;SDS011;69943;20.850;106.728;2024-03-02T06:38:52;23.40;;;15.40;;
80586;SDS011;69943;20.850;106.728;2024-03-02T06:41:25;24.10;;;16.70;;
80586;SDS011;69943;20.850;106.728;2024-03-02T06:44:00;30.20;;;18.80;;
80586;SDS011;69943;20.850;106.728;2024-03-02T06:46:37;25.10;;;16.50;;
80586;SDS011;69943;20.850;106.728;2024-03-02T06:49:09;23.40;;;16.60;;
80586;SDS011;69943;20.850;106.728;2024-03-02T06:51:42;25.50;;;15.20;;
80586;SDS011;69943;20.850;106.728;2024-03-02T06:54:14;18.00;;;13.50;;
80586;SDS011;69943;20.850;106.728;2024-03-02T06:56:46;24.00;;;14.00;;
80586;SDS011;69943;20.850;106.728;2024-03-02T06:59:19;18.40;;;13.30;;
80586;SDS011;69943;20.850;106.728;2024-03-02T07:01:51;25.20;;;13.90;;
80586;SDS011;69943;20.850;106.728;2024-03-02T07:04:24;19.20;;;13.10;;
80586;SDS011;69943;20.850;106.728;2024-03-02T07:06:59;17.80;;;13.20;;
80586;SDS011;69943;20.850;106.728;2024-03-02T07:09:31;20.10;;;13.20;;
80586;SDS011;69943;20.850;106.728;2024-03-02T07:12:04;20.70;;;13.60;;
80586;SDS011;69943;20.850;106.728;2024-03-02T07:14:36;18.70;;;12.70;;
80586;SDS011;69943;20.850;106.728;2024-03-02T07:17:28;19.30;;;14.40;;
80586;SDS011;69943;20.850;106.728;2024-03-02T07:20:01;23.10;;;13.10;;
80586;SDS011;69943;20.850;106.728;2024-03-02T07:25:11;25.40;;;13.00;;
80586;SDS011;69943;20.850;106.728;2024-03-02T07:27:51;23.30;;;13.70;;
80586;SDS011;69943;20.850;106.728;2024-03-02T07:30:23;19.20;;;12.70;;
80586;SDS011;69943;20.850;106.728;2024-03-02T07:32:56;20.80;;;13.40;;
80586;SDS011;69943;20.850;106.728;2024-03-02T07:35:29;21.00;;;13.80;;
80586;SDS011;69943;20.850;106.728;2024-03-02T07:38:04;24.10;;;14.70;;
80586;SDS011;69943;20.850;106.728;2024-03-02T07:40:36;23.20;;;14.10;;
80586;SDS011;69943;20.850;106.728;2024-03-02T07:43:09;20.20;;;13.80;;
80586;SDS011;69943;20.850;106.728;2024-03-02T07:45:42;20.20;;;14.70;;
80586;SDS011;69943;20.850;106.728;2024-03-02T07:48:16;22.30;;;14.40;;
80586;SDS011;69943;20.850;106.728;2024-03-02T07:50:48;20.60;;;13.80;;
80586;SDS011;69943;20.850;106.728;2024-03-02T07:53:21;25.60;;;14.50;;
80586;SDS011;69943;20.850;106.728;2024-03-02T07:55:53;21.20;;;13.90;;
80586;SDS011;69943;20.850;106.728;2024-03-02T07:58:32;24.10;;;14.10;;
80586;SDS011;69943;20.850;106.728;2024-03-02T08:01:06;22.50;;;14.30;;
80586;SDS011;69943;20.850;106.728;2024-03-02T08:03:38;22.80;;;14.40;;
80586;SDS011;69943;20.850;106.728;2024-03-02T08:06:11;19.20;;;12.60;;
80586;SDS011;69943;20.850;106.728;2024-03-02T08:08:45;21.30;;;14.30;;
80586;SDS011;69943;20.850;106.728;2024-03-02T08:11:17;21.90;;;14.50;;
80586;SDS011;69943;20.850;106.728;2024-03-02T08:13:50;19.50;;;13.10;;
80586;SDS011;69943;20.850;106.728;2024-03-02T08:16:25;18.30;;;13.20;;
80586;SDS011;69943;20.850;106.728;2024-03-02T08:18:58;23.90;;;14.90;;
80586;SDS011;69943;20.850;106.728;2024-03-02T08:21:30;18.90;;;14.00;;
80586;SDS011;69943;20.850;106.728;2024-03-02T08:26:38;15.20;;;12.60;;
80586;SDS011;69943;20.850;106.728;2024-03-02T08:29:10;16.60;;;11.90;;
80586;SDS011;69943;20.850;106.728;2024-03-02T08:31:43;19.90;;;13.90;;
80586;SDS011;69943;20.850;106.728;2024-03-02T08:34:16;18.20;;;13.00;;
80586;SDS011;69943;20.850;106.728;2024-03-02T08:36:48;19.70;;;13.90;;
80586;SDS011;69943;20.850;106.728;2024-03-02T08:39:21;19.40;;;14.00;;
80586;SDS011;69943;20.850;106.728;2024-03-02T08:41:53;20.20;;;13.40;;
80586;SDS011;69943;20.850;106.728;2024-03-02T08:44:26;19.70;;;12.90;;
80586;SDS011;69943;20.850;106.728;2024-03-02T08:46:58;21.30;;;13.00;;
80586;SDS011;69943;20.850;106.728;2024-03-02T08:49:31;21.70;;;14.20;;
80586;SDS011;69943;20.850;106.728;2024-03-02T08:52:04;19.50;;;12.10;;
80586;SDS011;69943;20.850;106.728;2024-03-02T08:54:37;20.80;;;13.50;;
80586;SDS011;69943;20.850;106.728;2024-03-02T08:57:09;18.60;;;13.20;;
80586;SDS011;69943;20.850;106.728;2024-03-02T08:59:45;20.20;;;14.20;;
80586;SDS011;69943;20.850;106.728;2024-03-02T09:02:17;20.30;;;13.60;;
80586;SDS011;69943;20.850;106.728;2024-03-02T09:04:49;16.70;;;12.80;;
80586;SDS011;69943;20.850;106.728;2024-03-02T09:07:22;18.00;;;13.10;;
80586;SDS011;69943;20.850;106.728;2024-03-02T09:09:56;18.70;;;13.70;;
80586;SDS011;69943;20.850;106.728;2024-03-02T09:12:28;19.20;;;12.70;;
80586;SDS011;69943;20.850;106.728;2024-03-02T09:15:01;20.40;;;14.60;;
80586;SDS011;69943;20.850;106.728;2024-03-02T09:17:34;19.10;;;13.50;;
80586;SDS011;69943;20.850;106.728;2024-03-02T09:20:07;18.20;;;13.20;;
80586;SDS011;69943;20.850;106.728;2024-03-02T09:22:39;20.50;;;13.80;;
80586;SDS011;69943;20.850;106.728;2024-03-02T09:25:12;15.90;;;13.20;;
80586;SDS011;69943;20.850;106.728;2024-03-02T09:27:45;18.10;;;13.10;;
80586;SDS011;69943;20.850;106.728;2024-03-02T09:30:17;16.90;;;13.20;;
80586;SDS011;69943;20.850;106.728;2024-03-02T09:32:50;21.60;;;14.70;;
80586;SDS011;69943;20.850;106.728;2024-03-02T09:35:24;20.40;;;13.60;;
80586;SDS011;69943;20.850;106.728;2024-03-02T09:37:56;19.10;;;13.90;;
80586;SDS011;69943;20.850;106.728;2024-03-02T09:40:29;20.60;;;14.50;;
80586;SDS011;69943;20.850;106.728;2024-03-02T09:43:02;22.30;;;15.00;;
80586;SDS011;69943;20.850;106.728;2024-03-02T09:45:35;21.60;;;14.00;;
80586;SDS011;69943;20.850;106.728;2024-03-02T09:48:08;23.40;;;13.60;;
80586;SDS011;69943;20.850;106.728;2024-03-02T09:50:40;26.30;;;15.80;;
80586;SDS011;69943;20.850;106.728;2024-03-02T09:53:13;25.00;;;16.30;;
80586;SDS011;69943;20.850;106.728;2024-03-02T09:55:47;25.90;;;16.70;;
80586;SDS011;69943;20.850;106.728;2024-03-02T09:58:22;27.90;;;18.80;;
80586;SDS011;69943;20.850;106.728;2024-03-02T10:00:54;24.30;;;17.20;;
80586;SDS011;69943;20.850;106.728;2024-03-02T10:03:26;24.30;;;16.60;;
80586;SDS011;69943;20.850;106.728;2024-03-02T10:06:21;32.80;;;17.20;;
80586;SDS011;69943;20.850;106.728;2024-03-02T10:08:55;22.80;;;16.20;;
80586;SDS011;69943;20.850;106.728;2024-03-02T10:11:32;30.00;;;18.80;;
80586;SDS011;69943;20.850;106.728;2024-03-02T10:14:08;29.00;;;18.50;;
80586;SDS011;69943;20.850;106.728;2024-03-02T10:16:42;26.90;;;18.70;;
80586;SDS011;69943;20.850;106.728;2024-03-02T10:19:19;34.00;;;20.40;;
80586;SDS011;69943;20.850;106.728;2024-03-02T10:21:53;30.20;;;18.10;;
80586;SDS011;69943;20.850;106.728;2024-03-02T10:24:25;28.60;;;18.60;;
80586;SDS011;69943;20.850;106.728;2024-03-02T10:26:58;27.70;;;19.20;;
80586;SDS011;69943;20.850;106.728;2024-03-02T10:29:30;24.30;;;18.40;;
80586;SDS011;69943;20.850;106.728;2024-03-02T10:32:03;27.70;;;18.70;;
80586;SDS011;69943;20.850;106.728;2024-03-02T10:34:39;26.60;;;17.30;;
80586;SDS011;69943;20.850;106.728;2024-03-02T10:37:11;22.50;;;15.80;;
80586;SDS011;69943;20.850;106.728;2024-03-02T10:39:45;26.30;;;16.50;;
80586;SDS011;69943;20.850;106.728;2024-03-02T10:42:18;23.00;;;15.70;;
80586;SDS011;69943;20.850;106.728;2024-03-02T10:44:51;24.70;;;16.30;;
80586;SDS011;69943;20.850;106.728;2024-03-02T10:47:23;22.50;;;16.00;;
80586;SDS011;69943;20.850;106.728;2024-03-02T10:49:58;22.30;;;16.00;;
80586;SDS011;69943;20.850;106.728;2024-03-02T10:52:31;25.40;;;16.20;;
80586;SDS011;69943;20.850;106.728;2024-03-02T10:55:03;22.90;;;15.30;;
80586;SDS011;69943;20.850;106.728;2024-03-02T10:57:50;23.70;;;16.10;;
80586;SDS011;69943;20.850;106.728;2024-03-02T11:00:24;20.40;;;14.70;;
80586;SDS011;69943;20.850;106.728;2024-03-02T11:03:06;24.00;;;16.60;;
80586;SDS011;69943;20.850;106.728;2024-03-02T11:05:45;22.20;;;13.30;;
80586;SDS011;69943;20.850;106.728;2024-03-02T11:08:18;24.90;;;14.70;;
80586;SDS011;69943;20.850;106.728;2024-03-02T11:10:56;21.20;;;15.20;;
80586;SDS011;69943;20.850;106.728;2024-03-02T11:13:31;20.40;;;16.00;;
80586;SDS011;69943;20.850;106.728;2024-03-02T11:16:09;21.00;;;15.10;;
80586;SDS011;69943;20.850;106.728;2024-03-02T11:19:06;23.00;;;13.80;;
80586;SDS011;69943;20.850;106.728;2024-03-02T11:21:41;23.50;;;14.60;;
80586;SDS011;69943;20.850;106.728;2024-03-02T11:26:58;23.70;;;14.10;;
80586;SDS011;69943;20.850;106.728;2024-03-02T11:32:14;18.70;;;13.90;;
80586;SDS011;69943;20.850;106.728;2024-03-02T11:34:48;19.10;;;13.90;;
80586;SDS011;69943;20.850;106.728;2024-03-02T11:37:20;19.10;;;13.70;;
80586;SDS011;69943;20.850;106.728;2024-03-02T11:39:53;20.50;;;13.80;;
80586;SDS011;69943;20.850;106.728;2024-03-02T11:42:25;18.10;;;13.00;;
80586;SDS011;69943;20.850;106.728;2024-03-02T11:44:58;17.20;;;13.40;;
80586;SDS011;69943;20.850;106.728;2024-03-02T11:47:32;18.80;;;13.70;;
80586;SDS011;69943;20.850;106.728;2024-03-02T11:50:05;19.50;;;13.70;;
80586;SDS011;69943;20.850;106.728;2024-03-02T11:52:38;19.60;;;13.40;;
80586;SDS011;69943;20.850;106.728;2024-03-02T11:55:11;19.40;;;13.60;;
80586;SDS011;69943;20.850;106.728;2024-03-02T11:57:48;20.10;;;12.50;;
80586;SDS011;69943;20.850;106.728;2024-03-02T12:00:22;18.60;;;12.60;;
80586;SDS011;69943;20.850;106.728;2024-03-02T12:03:02;18.40;;;12.80;;
80586;SDS011;69943;20.850;106.728;2024-03-02T12:05:36;19.80;;;15.00;;
80586;SDS011;69943;20.850;106.728;2024-03-02T12:08:08;17.50;;;12.20;;
80586;SDS011;69943;20.850;106.728;2024-03-02T12:10:43;19.50;;;13.30;;
80586;SDS011;69943;20.850;106.728;2024-03-02T12:13:29;19.00;;;13.70;;
80586;SDS011;69943;20.850;106.728;2024-03-02T12:16:01;17.30;;;13.80;;
80586;SDS011;69943;20.850;106.728;2024-03-02T12:18:34;20.00;;;13.60;;
80586;SDS011;69943;20.850;106.728;2024-03-02T12:21:07;20.60;;;13.60;;
80586;SDS011;69943;20.850;106.728;2024-03-02T12:23:39;18.30;;;13.60;;
80586;SDS011;69943;20.850;106.728;2024-03-02T12:26:12;18.30;;;13.20;;
80586;SDS011;69943;20.850;106.728;2024-03-02T12:28:47;19.00;;;13.60;;
80586;SDS011;69943;20.850;106.728;2024-03-02T12:31:20;18.40;;;13.70;;
80586;SDS011;69943;20.850;106.728;2024-03-02T12:33:52;18.20;;;13.60;;
80586;SDS011;69943;20.850;106.728;2024-03-02T12:36:26;21.30;;;13.40;;
80586;SDS011;69943;20.850;106.728;2024-03-02T12:38:59;16.30;;;13.10;;
80586;SDS011;69943;20.850;106.728;2024-03-02T12:41:32;18.60;;;14.30;;
80586;SDS011;69943;20.850;106.728;2024-03-02T12:44:05;15.90;;;12.80;;
80586;SDS011;69943;20.850;106.728;2024-03-02T12:46:38;17.40;;;13.70;;
80586;SDS011;69943;20.850;106.728;2024-03-02T12:49:13;18.20;;;13.30;;
80586;SDS011;69943;20.850;106.728;2024-03-02T12:51:51;18.00;;;12.60;;
80586;SDS011;69943;20.850;106.728;2024-03-02T12:54:24;18.10;;;14.30;;
80586;SDS011;69943;20.850;106.728;2024-03-02T12:56:58;17.60;;;13.20;;
80586;SDS011;69943;20.850;106.728;2024-03-02T12:59:32;17.80;;;13.10;;
80586;SDS011;69943;20.850;106.728;2024-03-02T13:02:05;18.60;;;13.70;;
80586;SDS011;69943;20.850;106.728;2024-03-02T13:04:38;16.60;;;12.80;;
80586;SDS011;69943;20.850;106.728;2024-03-02T13:07:12;17.20;;;13.60;;
80586;SDS011;69943;20.850;106.728;2024-03-02T13:09:48;17.60;;;13.40;;
80586;SDS011;69943;20.850;106.728;2024-03-02T13:12:28;16.00;;;12.20;;
80586;SDS011;69943;20.850;106.728;2024-03-02T13:15:12;19.20;;;13.60;;
80586;SDS011;69943;20.850;106.728;2024-03-02T13:17:45;15.60;;;13.90;;
80586;SDS011;69943;20.850;106.728;2024-03-02T13:20:18;16.10;;;13.30;;
80586;SDS011;69943;20.850;106.728;2024-03-02T13:22:51;16.70;;;14.20;;
80586;SDS011;69943;20.850;106.728;2024-03-02T13:25:23;16.10;;;13.40;;
80586;SDS011;69943;20.850;106.728;2024-03-02T13:27:56;17.40;;;12.90;;
80586;SDS011;69943;20.850;106.728;2024-03-02T13:30:42;16.30;;;12.30;;
80586;SDS011;69943;20.850;106.728;2024-03-02T13:33:15;16.40;;;12.20;;
80586;SDS011;69943;20.850;106.728;2024-03-02T13:35:55;16.80;;;12.80;;
80586;SDS011;69943;20.850;106.728;2024-03-02T13:38:35;15.70;;;12.90;;
80586;SDS011;69943;20.850;106.728;2024-03-02T13:41:09;14.60;;;11.80;;
80586;SDS011;69943;20.850;106.728;2024-03-02T13:43:54;15.60;;;12.60;;
80586;SDS011;69943;20.850;106.728;2024-03-02T13:46:27;17.20;;;14.00;;
80586;SDS011;69943;20.850;106.728;2024-03-02T13:49:00;14.70;;;12.70;;
80586;SDS011;69943;20.850;106.728;2024-03-02T13:51:34;17.80;;;12.70;;
80586;SDS011;69943;20.850;106.728;2024-03-02T13:54:08;16.00;;;12.70;;
80586;SDS011;69943;20.850;106.728;2024-03-02T13:56:41;14.20;;;11.90;;
80586;SDS011;69943;20.850;106.728;2024-03-02T13:59:18;15.20;;;12.30;;
80586;SDS011;69943;20.850;106.728;2024-03-02T14:01:51;17.60;;;13.00;;
80586;SDS011;69943;20.850;106.728;2024-03-02T14:04:24;18.70;;;12.30;;
80586;SDS011;69943;20.850;106.728;2024-03-02T14:07:02;17.20;;;13.60;;
80586;SDS011;69943;20.850;106.728;2024-03-02T14:09:38;16.40;;;12.60;;
80586;SDS011;69943;20.850;106.728;2024-03-02T14:12:14;16.70;;;12.90;;
80586;SDS011;69943;20.850;106.728;2024-03-02T14:14:50;14.40;;;12.40;;
80586;SDS011;69943;20.850;106.728;2024-03-02T14:17:26;18.70;;;13.20;;
80586;SDS011;69943;20.850;106.728;2024-03-02T14:19:59;19.00;;;13.70;;
80586;SDS011;69943;20.850;106.728;2024-03-02T14:22:32;14.20;;;12.30;;
80586;SDS011;69943;20.850;106.728;2024-03-02T14:25:05;19.30;;;13.60;;
80586;SDS011;69943;20.850;106.728;2024-03-02T14:27:39;19.30;;;12.80;;
80586;SDS011;69943;20.850;106.728;2024-03-02T14:30:12;18.10;;;12.60;;
80586;SDS011;69943;20.850;106.728;2024-03-02T14:32:45;19.10;;;13.50;;
80586;SDS011;69943;20.850;106.728;2024-03-02T14:35:18;16.60;;;12.90;;
80586;SDS011;69943;20.850;106.728;2024-03-02T14:37:54;16.40;;;13.20;;
80586;SDS011;69943;20.850;106.728;2024-03-02T14:40:30;18.40;;;13.20;;
80586;SDS011;69943;20.850;106.728;2024-03-02T14:43:03;19.10;;;14.10;;
80586;SDS011;69943;20.850;106.728;2024-03-02T14:45:36;19.50;;;12.70;;
80586;SDS011;69943;20.850;106.728;2024-03-02T14:48:09;18.40;;;14.00;;